sensor_id;sensor_type;location;lat;lon;timestamp;pressure;altitude;pressure_sealevel;temperature;humidity
86322;BME280;76978;42.798;23.336;2024-03-25T00:00:11;94342.72;;;6.61;66.79
86322;BME280;76978;42.798;23.336;2024-03-25T00:02:40;94362.44;;;6.60;66.71
86322;BME280;76978;42.798;23.336;2024-03-25T00:05:07;94368.66;;;6.58;66.68
86322;BME280;76978;42.798;23.336;2024-03-25T00:07:39;94361.53;;;6.52;66.14
86322;BME280;76978;42.798;23.336;2024-03-25T00:10:05;94380.31;;;6.43;66.71
86322;BME280;76978;42.798;23.336;2024-03-25T00:12:36;94385.44;;;6.43;66.30
86322;BME280;76978;42.798;23.336;2024-03-25T00:15:02;94358.44;;;6.48;66.03
86322;BME280;76978;42.798;23.336;2024-03-25T00:17:28;94357.63;;;6.48;65.93
86322;BME280;76978;42.798;23.336;2024-03-25T00:19:53;94353.09;;;6.42;66.54
86322;BME280;76978;42.798;23.336;2024-03-25T00:22:19;94353.75;;;6.44;66.47
86322;BME280;76978;42.798;23.336;2024-03-25T00:24:46;94339.03;;;6.46;66.31
86322;BME280;76978;42.798;23.336;2024-03-25T00:27:12;94333.94;;;6.36;66.22
86322;BME280;76978;42.798;23.336;2024-03-25T00:29:37;94329.63;;;6.36;66.78
86322;BME280;76978;42.798;23.336;2024-03-25T00:32:03;94337.00;;;6.39;65.66
86322;BME280;76978;42.798;23.336;2024-03-25T00:34:28;94334.34;;;6.41;65.94
86322;BME280;76978;42.798;23.336;2024-03-25T00:36:54;94333.13;;;6.35;65.81
86322;BME280;76978;42.798;23.336;2024-03-25T00:39:19;94338.66;;;6.41;65.54
86322;BME280;76978;42.798;23.336;2024-03-25T00:41:45;94331.22;;;6.37;65.57
86322;BME280;76978;42.798;23.336;2024-03-25T00:44:10;94339.75;;;6.28;65.99
86322;BME280;76978;42.798;23.336;2024-03-25T00:46:36;94350.41;;;6.33;66.56
86322;BME280;76978;42.798;23.336;2024-03-25T00:49:01;94350.69;;;6.30;66.30
86322;BME280;76978;42.798;23.336;2024-03-25T00:51:27;94346.94;;;6.25;66.57
86322;BME280;76978;42.798;23.336;2024-03-25T00:53:52;94341.94;;;6.23;67.23
86322;BME280;76978;42.798;23.336;2024-03-25T00:56:18;94339.38;;;6.23;67.04
86322;BME280;76978;42.798;23.336;2024-03-25T00:58:43;94351.78;;;6.18;66.58
86322;BME280;76978;42.798;23.336;2024-03-25T01:01:10;94342.78;;;6.14;67.51
86322;BME280;76978;42.798;23.336;2024-03-25T01:03:37;94332.69;;;6.13;66.65
86322;BME280;76978;42.798;23.336;2024-03-25T01:06:03;94324.56;;;6.17;66.75
86322;BME280;76978;42.798;23.336;2024-03-25T01:08:29;94325.81;;;6.13;66.93
86322;BME280;76978;42.798;23.336;2024-03-25T01:10:55;94330.50;;;6.18;66.65
86322;BME280;76978;42.798;23.336;2024-03-25T01:13:21;94320.25;;;6.18;66.18
86322;BME280;76978;42.798;23.336;2024-03-25T01:15:46;94316.47;;;6.22;67.05
86322;BME280;76978;42.798;23.336;2024-03-25T01:18:12;94307.41;;;6.27;66.94
86322;BME280;76978;42.798;23.336;2024-03-25T01:20:38;94300.38;;;6.29;66.28
86322;BME280;76978;42.798;23.336;2024-03-25T01:23:04;94306.03;;;6.33;66.27
86322;BME280;76978;42.798;23.336;2024-03-25T01:25:30;94315.59;;;6.41;66.23
86322;BME280;76978;42.798;23.336;2024-03-25T01:27:55;94314.75;;;6.40;66.08
86322;BME280;76978;42.798;23.336;2024-03-25T01:30:21;94314.75;;;6.40;66.08
86322;BME280;76978;42.798;23.336;2024-03-25T01:32:47;94313.03;;;6.41;65.81
86322;BME280;76978;42.798;23.336;2024-03-25T01:35:14;94320.72;;;6.41;65.47
86322;BME280;76978;42.798;23.336;2024-03-25T01:37:40;94318.56;;;6.36;65.40
86322;BME280;76978;42.798;23.336;2024-03-25T01:40:07;94333.78;;;6.37;65.91
86322;BME280;76978;42.798;23.336;2024-03-25T01:42:32;94322.63;;;6.29;65.98
86322;BME280;76978;42.798;23.336;2024-03-25T01:44:58;94341.94;;;6.23;66.29
86322;BME280;76978;42.798;23.336;2024-03-25T01:47:24;94331.22;;;6.10;66.94
86322;BME280;76978;42.798;23.336;2024-03-25T01:49:50;94338.91;;;6.10;66.80
86322;BME280;76978;42.798;23.336;2024-03-25T01:52:19;94334.47;;;6.02;66.86
86322;BME280;76978;42.798;23.336;2024-03-25T01:54:46;94328.97;;;5.97;67.60
86322;BME280;76978;42.798;23.336;2024-03-25T01:57:11;94328.38;;;6.03;67.74
86322;BME280;76978;42.798;23.336;2024-03-25T01:59:38;94318.53;;;6.08;67.91
86322;BME280;76978;42.798;23.336;2024-03-25T02:02:04;94318.25;;;6.12;66.57
86322;BME280;76978;42.798;23.336;2024-03-25T02:04:31;94332.28;;;6.07;67.16
86322;BME280;76978;42.798;23.336;2024-03-25T02:06:56;94331.75;;;6.04;67.20
86322;BME280;76978;42.798;23.336;2024-03-25T02:09:23;94337.28;;;5.90;67.05
86322;BME280;76978;42.798;23.336;2024-03-25T02:11:49;94346.72;;;5.89;66.93
86322;BME280;76978;42.798;23.336;2024-03-25T02:14:15;94347.94;;;5.85;66.69
86322;BME280;76978;42.798;23.336;2024-03-25T02:16:41;94349.97;;;5.81;67.15
86322;BME280;76978;42.798;23.336;2024-03-25T02:19:07;94352.00;;;5.78;67.42
86322;BME280;76978;42.798;23.336;2024-03-25T02:21:34;94352.25;;;5.85;67.17
86322;BME280;76978;42.798;23.336;2024-03-25T02:24:04;94334.31;;;5.85;66.69
86322;BME280;76978;42.798;23.336;2024-03-25T02:26:33;94333.81;;;5.91;66.87
86322;BME280;76978;42.798;23.336;2024-03-25T02:28:58;94330.44;;;5.90;66.09
86322;BME280;76978;42.798;23.336;2024-03-25T02:31:23;94328.97;;;5.97;65.86
86322;BME280;76978;42.798;23.336;2024-03-25T02:33:49;94326.25;;;5.99;65.11
86322;BME280;76978;42.798;23.336;2024-03-25T02:36:14;94328.81;;;5.99;65.29
86322;BME280;76978;42.798;23.336;2024-03-25T02:38:40;94337.97;;;6.01;64.95
86322;BME280;76978;42.798;23.336;2024-03-25T02:41:06;94341.63;;;5.99;65.26
86322;BME280;76978;42.798;23.336;2024-03-25T02:43:31;94348.75;;;5.95;64.98
86322;BME280;76978;42.798;23.336;2024-03-25T02:45:57;94349.84;;;5.93;64.96
86322;BME280;76978;42.798;23.336;2024-03-25T02:48:22;94342.03;;;5.94;64.10
86322;BME280;76978;42.798;23.336;2024-03-25T02:50:48;94345.13;;;5.88;64.71
86322;BME280;76978;42.798;23.336;2024-03-25T02:53:13;94346.88;;;5.88;64.87
86322;BME280;76978;42.798;23.336;2024-03-25T02:55:38;94349.56;;;5.86;64.19
86322;BME280;76978;42.798;23.336;2024-03-25T02:58:04;94354.56;;;5.88;64.66
86322;BME280;76978;42.798;23.336;2024-03-25T03:00:29;94366.41;;;5.89;64.98
86322;BME280;76978;42.798;23.336;2024-03-25T03:02:55;94368.56;;;5.83;64.80
86322;BME280;76978;42.798;23.336;2024-03-25T03:05:20;94372.63;;;5.76;64.51
86322;BME280;76978;42.798;23.336;2024-03-25T03:07:45;94368.47;;;5.75;64.66
86322;BME280;76978;42.798;23.336;2024-03-25T03:10:11;94355.09;;;5.72;64.87
86322;BME280;76978;42.798;23.336;2024-03-25T03:12:36;94364.81;;;5.68;65.28
86322;BME280;76978;42.798;23.336;2024-03-25T03:15:02;94370.88;;;5.67;65.21
86322;BME280;76978;42.798;23.336;2024-03-25T03:17:27;94373.69;;;5.64;65.25
86322;BME280;76978;42.798;23.336;2024-03-25T03:19:53;94377.34;;;5.62;65.89
86322;BME280;76978;42.798;23.336;2024-03-25T03:22:18;94376.81;;;5.58;65.74
86322;BME280;76978;42.798;23.336;2024-03-25T03:24:43;94372.94;;;5.54;65.95
86322;BME280;76978;42.798;23.336;2024-03-25T03:27:09;94374.25;;;5.58;65.73
86322;BME280;76978;42.798;23.336;2024-03-25T03:29:34;94380.19;;;5.59;65.27
86322;BME280;76978;42.798;23.336;2024-03-25T03:32:00;94396.75;;;5.55;66.09
86322;BME280;76978;42.798;23.336;2024-03-25T03:34:25;94396.34;;;5.49;66.29
86322;BME280;76978;42.798;23.336;2024-03-25T03:36:51;94412.66;;;5.48;65.82
86322;BME280;76978;42.798;23.336;2024-03-25T03:39:16;94405.38;;;5.44;66.53
86322;BME280;76978;42.798;23.336;2024-03-25T03:41:42;94404.69;;;5.42;66.44
86322;BME280;76978;42.798;23.336;2024-03-25T03:44:08;94405.63;;;5.41;66.98
86322;BME280;76978;42.798;23.336;2024-03-25T03:46:34;94416.81;;;5.40;66.62
86322;BME280;76978;42.798;23.336;2024-03-25T03:49:00;94425.03;;;5.34;66.80
86322;BME280;76978;42.798;23.336;2024-03-25T03:51:25;94432.00;;;5.32;66.98
86322;BME280;76978;42.798;23.336;2024-03-25T03:53:51;94424.22;;;5.23;68.24
86322;BME280;76978;42.798;23.336;2024-03-25T03:56:17;94424.06;;;5.25;67.47
86322;BME280;76978;42.798;23.336;2024-03-25T03:58:42;94423.13;;;5.16;68.21
86322;BME280;76978;42.798;23.336;2024-03-25T04:01:17;94410.97;;;5.09;68.44
86322;BME280;76978;42.798;23.336;2024-03-25T04:03:44;94414.59;;;5.06;69.17
86322;BME280;76978;42.798;23.336;2024-03-25T04:06:13;94415.00;;;4.92;69.50
86322;BME280;76978;42.798;23.336;2024-03-25T04:08:39;94421.03;;;4.91;69.76
86322;BME280;76978;42.798;23.336;2024-03-25T04:11:06;94428.28;;;4.86;70.00
86322;BME280;76978;42.798;23.336;2024-03-25T04:13:33;94438.75;;;4.73;70.17
86322;BME280;76978;42.798;23.336;2024-03-25T04:16:02;94447.06;;;4.75;70.19
86322;BME280;76978;42.798;23.336;2024-03-25T04:18:29;94452.31;;;4.74;70.95
86322;BME280;76978;42.798;23.336;2024-03-25T04:20:54;94449.09;;;4.72;70.98
86322;BME280;76978;42.798;23.336;2024-03-25T04:23:20;94442.94;;;4.84;70.13
86322;BME280;76978;42.798;23.336;2024-03-25T04:25:45;94438.47;;;4.76;71.18
86322;BME280;76978;42.798;23.336;2024-03-25T04:28:10;94450.31;;;4.77;70.81
86322;BME280;76978;42.798;23.336;2024-03-25T04:30:36;94444.16;;;4.80;70.89
86322;BME280;76978;42.798;23.336;2024-03-25T04:33:01;94443.88;;;4.83;70.42
86322;BME280;76978;42.798;23.336;2024-03-25T04:35:27;94447.75;;;4.77;71.59
86322;BME280;76978;42.798;23.336;2024-03-25T04:37:53;94448.72;;;4.86;71.21
86322;BME280;76978;42.798;23.336;2024-03-25T04:40:20;94448.50;;;4.89;71.69
86322;BME280;76978;42.798;23.336;2024-03-25T04:42:46;94448.50;;;4.89;71.09
86322;BME280;76978;42.798;23.336;2024-03-25T04:45:11;94467.44;;;4.86;71.30
86322;BME280;76978;42.798;23.336;2024-03-25T04:47:40;94487.75;;;4.88;71.31
86322;BME280;76978;42.798;23.336;2024-03-25T04:50:06;94493.19;;;4.94;71.13
86322;BME280;76978;42.798;23.336;2024-03-25T04:52:32;94503.72;;;5.01;70.54
86322;BME280;76978;42.798;23.336;2024-03-25T04:54:57;94502.50;;;5.05;71.18
86322;BME280;76978;42.798;23.336;2024-03-25T04:57:23;94499.28;;;5.03;70.83
86322;BME280;76978;42.798;23.336;2024-03-25T04:59:49;94506.72;;;5.16;70.17
86322;BME280;76978;42.798;23.336;2024-03-25T05:02:14;94507.25;;;5.19;69.87
86322;BME280;76978;42.798;23.336;2024-03-25T05:04:40;94495.44;;;5.28;69.96
86322;BME280;76978;42.798;23.336;2024-03-25T05:07:05;94501.38;;;5.29;68.88
86322;BME280;76978;42.798;23.336;2024-03-25T05:09:31;94500.41;;;5.30;70.22
86322;BME280;76978;42.798;23.336;2024-03-25T05:11:56;94502.19;;;5.39;69.70
86322;BME280;76978;42.798;23.336;2024-03-25T05:14:22;94499.00;;;5.46;69.62
86322;BME280;76978;42.798;23.336;2024-03-25T05:16:47;94497.63;;;5.52;67.99
86322;BME280;76978;42.798;23.336;2024-03-25T05:19:14;94499.00;;;5.56;68.00
86322;BME280;76978;42.798;23.336;2024-03-25T05:21:39;94495.38;;;5.68;67.50
86322;BME280;76978;42.798;23.336;2024-03-25T05:24:05;94502.41;;;5.76;67.61
86322;BME280;76978;42.798;23.336;2024-03-25T05:26:30;94508.47;;;5.85;66.46
86322;BME280;76978;42.798;23.336;2024-03-25T05:28:56;94512.81;;;5.94;66.53
86322;BME280;76978;42.798;23.336;2024-03-25T05:31:23;94520.50;;;6.03;65.60
86322;BME280;76978;42.798;23.336;2024-03-25T05:33:49;94515.09;;;6.06;65.01
86322;BME280;76978;42.798;23.336;2024-03-25T05:36:15;94517.13;;;6.13;64.17
86322;BME280;76978;42.798;23.336;2024-03-25T05:38:40;94524.00;;;6.22;64.06
86322;BME280;76978;42.798;23.336;2024-03-25T05:41:08;94525.50;;;6.24;64.48
86322;BME280;76978;42.798;23.336;2024-03-25T05:43:34;94531.16;;;6.28;63.50
86322;BME280;76978;42.798;23.336;2024-03-25T05:45:59;94542.63;;;6.24;63.37
86322;BME280;76978;42.798;23.336;2024-03-25T05:48:25;94533.72;;;6.18;63.68
86322;BME280;76978;42.798;23.336;2024-03-25T05:51:05;94538.16;;;6.26;64.27
86322;BME280;76978;42.798;23.336;2024-03-25T05:53:32;94538.69;;;6.39;63.51
86322;BME280;76978;42.798;23.336;2024-03-25T05:55:58;94546.13;;;6.42;62.46
86322;BME280;76978;42.798;23.336;2024-03-25T05:58:24;94549.22;;;6.46;63.19
86322;BME280;76978;42.798;23.336;2024-03-25T06:00:51;94552.06;;;6.52;62.44
86322;BME280;76978;42.798;23.336;2024-03-25T06:03:16;94552.16;;;6.60;62.04
86322;BME280;76978;42.798;23.336;2024-03-25T06:05:43;94551.34;;;6.69;62.51
86322;BME280;76978;42.798;23.336;2024-03-25T06:08:09;94554.53;;;6.81;61.59
86322;BME280;76978;42.798;23.336;2024-03-25T06:10:43;94560.75;;;6.88;61.68
86322;BME280;76978;42.798;23.336;2024-03-25T06:13:09;94563.28;;;6.98;60.96
86322;BME280;76978;42.798;23.336;2024-03-25T06:15:34;94573.53;;;7.08;60.38
86322;BME280;76978;42.798;23.336;2024-03-25T06:17:59;94567.00;;;7.23;60.79
86322;BME280;76978;42.798;23.336;2024-03-25T06:20:25;94569.81;;;7.30;58.31
86322;BME280;76978;42.798;23.336;2024-03-25T06:22:50;94578.03;;;7.33;58.92
86322;BME280;76978;42.798;23.336;2024-03-25T06:25:18;94575.19;;;7.36;58.90
86322;BME280;76978;42.798;23.336;2024-03-25T06:27:44;94574.91;;;7.39;59.05
86322;BME280;76978;42.798;23.336;2024-03-25T06:30:10;94579.47;;;7.45;59.65
86322;BME280;76978;42.798;23.336;2024-03-25T06:32:54;94583.25;;;7.51;58.31
86322;BME280;76978;42.798;23.336;2024-03-25T06:35:38;94584.03;;;7.51;59.89
86322;BME280;76978;42.798;23.336;2024-03-25T06:38:04;94586.19;;;7.56;59.83
86322;BME280;76978;42.798;23.336;2024-03-25T06:40:29;94592.19;;;7.74;57.68
86322;BME280;76978;42.798;23.336;2024-03-25T06:42:56;94586.59;;;7.79;56.58
86322;BME280;76978;42.798;23.336;2024-03-25T06:45:21;94593.94;;;7.74;55.83
86322;BME280;76978;42.798;23.336;2024-03-25T06:47:46;94598.47;;;7.80;56.18
86322;BME280;76978;42.798;23.336;2024-03-25T06:50:12;94597.69;;;7.79;55.97
86322;BME280;76978;42.798;23.336;2024-03-25T06:52:37;94609.25;;;7.93;57.25
86322;BME280;76978;42.798;23.336;2024-03-25T06:55:03;94596.69;;;7.90;55.67
86322;BME280;76978;42.798;23.336;2024-03-25T06:57:28;94606.06;;;7.81;55.17
86322;BME280;76978;42.798;23.336;2024-03-25T06:59:54;94605.53;;;7.78;54.59
86322;BME280;76978;42.798;23.336;2024-03-25T07:02:19;94606.88;;;7.82;54.82
86322;BME280;76978;42.798;23.336;2024-03-25T07:04:45;94612.75;;;7.92;56.90
86322;BME280;76978;42.798;23.336;2024-03-25T07:07:10;94618.94;;;7.99;55.47
86322;BME280;76978;42.798;23.336;2024-03-25T07:09:35;94610.13;;;8.02;55.33
86322;BME280;76978;42.798;23.336;2024-03-25T07:12:01;94611.97;;;8.09;55.52
86322;BME280;76978;42.798;23.336;2024-03-25T07:14:26;94623.69;;;8.22;54.55
86322;BME280;76978;42.798;23.336;2024-03-25T07:16:52;94626.78;;;8.25;55.24
86322;BME280;76978;42.798;23.336;2024-03-25T07:19:17;94629.06;;;8.46;56.68
86322;BME280;76978;42.798;23.336;2024-03-25T07:21:42;94634.09;;;8.65;54.31
86322;BME280;76978;42.798;23.336;2024-03-25T07:24:08;94628.28;;;8.63;53.30
86322;BME280;76978;42.798;23.336;2024-03-25T07:26:33;94632.69;;;8.53;53.24
86322;BME280;76978;42.798;23.336;2024-03-25T07:28:58;94632.91;;;8.60;52.84
86322;BME280;76978;42.798;23.336;2024-03-25T07:31:24;94636.00;;;8.63;52.59
86322;BME280;76978;42.798;23.336;2024-03-25T07:33:50;94630.63;;;8.57;51.19
86322;BME280;76978;42.798;23.336;2024-03-25T07:36:16;94641.44;;;8.60;53.10
86322;BME280;76978;42.798;23.336;2024-03-25T07:38:41;94641.56;;;8.77;51.53
86322;BME280;76978;42.798;23.336;2024-03-25T07:41:07;94637.81;;;8.89;50.33
86322;BME280;76978;42.798;23.336;2024-03-25T07:43:34;94637.53;;;8.92;50.96
86322;BME280;76978;42.798;23.336;2024-03-25T07:45:59;94639.63;;;8.96;53.24
86322;BME280;76978;42.798;23.336;2024-03-25T07:48:24;94640.50;;;9.23;52.30
86322;BME280;76978;42.798;23.336;2024-03-25T07:50:50;94640.38;;;9.33;50.50
86322;BME280;76978;42.798;23.336;2024-03-25T07:53:15;94637.44;;;9.53;50.71
86322;BME280;76978;42.798;23.336;2024-03-25T07:55:40;94646.34;;;9.59;50.16
86322;BME280;76978;42.798;23.336;2024-03-25T07:58:06;94646.72;;;9.72;49.43
86322;BME280;76978;42.798;23.336;2024-03-25T08:00:31;94657.03;;;9.72;49.20
86322;BME280;76978;42.798;23.336;2024-03-25T08:02:56;94658.94;;;9.70;49.27
86322;BME280;76978;42.798;23.336;2024-03-25T08:05:22;94649.97;;;9.82;48.02
86322;BME280;76978;42.798;23.336;2024-03-25T08:07:47;94656.44;;;9.86;50.29
86322;BME280;76978;42.798;23.336;2024-03-25T08:10:13;94660.69;;;10.04;49.32
86322;BME280;76978;42.798;23.336;2024-03-25T08:12:39;94657.09;;;10.23;48.83
86322;BME280;76978;42.798;23.336;2024-03-25T08:15:04;94661.88;;;10.17;48.78
86322;BME280;76978;42.798;23.336;2024-03-25T08:17:30;94666.28;;;10.25;48.71
86322;BME280;76978;42.798;23.336;2024-03-25T08:19:55;94667.91;;;10.26;48.64
86322;BME280;76978;42.798;23.336;2024-03-25T08:22:21;94671.13;;;10.28;47.55
86322;BME280;76978;42.798;23.336;2024-03-25T08:24:46;94668.16;;;10.15;47.75
86322;BME280;76978;42.798;23.336;2024-03-25T08:27:12;94676.19;;;10.46;46.74
86322;BME280;76978;42.798;23.336;2024-03-25T08:29:37;94682.22;;;10.79;45.40
86322;BME280;76978;42.798;23.336;2024-03-25T08:32:03;94682.69;;;10.83;44.66
86322;BME280;76978;42.798;23.336;2024-03-25T08:34:28;94679.63;;;10.71;46.09
86322;BME280;76978;42.798;23.336;2024-03-25T08:36:54;94686.97;;;10.33;46.35
86322;BME280;76978;42.798;23.336;2024-03-25T08:39:20;94695.56;;;10.16;48.25
86322;BME280;76978;42.798;23.336;2024-03-25T08:41:46;94695.16;;;10.29;49.74
86322;BME280;76978;42.798;23.336;2024-03-25T08:44:11;94678.13;;;10.60;48.02
86322;BME280;76978;42.798;23.336;2024-03-25T08:46:38;94683.44;;;10.42;47.56
86322;BME280;76978;42.798;23.336;2024-03-25T08:49:03;94695.16;;;10.29;46.84
86322;BME280;76978;42.798;23.336;2024-03-25T08:51:29;94689.88;;;10.04;48.16
86322;BME280;76978;42.798;23.336;2024-03-25T08:53:54;94694.19;;;9.96;48.51
86322;BME280;76978;42.798;23.336;2024-03-25T08:56:19;94691.28;;;9.91;48.05
86322;BME280;76978;42.798;23.336;2024-03-25T08:58:45;94705.50;;;10.03;46.40
86322;BME280;76978;42.798;23.336;2024-03-25T09:01:10;94707.53;;;9.91;48.27
86322;BME280;76978;42.798;23.336;2024-03-25T09:03:39;94713.28;;;9.77;46.24
86322;BME280;76978;42.798;23.336;2024-03-25T09:06:06;94701.72;;;9.63;48.45
86322;BME280;76978;42.798;23.336;2024-03-25T09:08:32;94703.66;;;9.61;48.41
86322;BME280;76978;42.798;23.336;2024-03-25T09:11:17;94702.00;;;9.52;47.89
86322;BME280;76978;42.798;23.336;2024-03-25T09:13:43;94699.66;;;9.41;49.09
86322;BME280;76978;42.798;23.336;2024-03-25T09:16:08;94708.34;;;9.40;49.08
86322;BME280;76978;42.798;23.336;2024-03-25T09:18:34;94706.50;;;9.32;48.33
86322;BME280;76978;42.798;23.336;2024-03-25T09:20:59;94717.28;;;9.27;48.52
86322;BME280;76978;42.798;23.336;2024-03-25T09:23:24;94715.75;;;9.17;49.25
86322;BME280;76978;42.798;23.336;2024-03-25T09:25:53;94724.81;;;9.03;49.04
86322;BME280;76978;42.798;23.336;2024-03-25T09:28:19;94717.97;;;8.94;49.86
86322;BME280;76978;42.798;23.336;2024-03-25T09:30:44;94728.34;;;9.02;51.29
86322;BME280;76978;42.798;23.336;2024-03-25T09:33:10;94721.69;;;8.99;50.19
86322;BME280;76978;42.798;23.336;2024-03-25T09:35:35;94733.75;;;8.99;50.99
86322;BME280;76978;42.798;23.336;2024-03-25T09:38:02;94728.63;;;8.99;50.70
86322;BME280;76978;42.798;23.336;2024-03-25T09:40:28;94730.16;;;9.10;49.72
86322;BME280;76978;42.798;23.336;2024-03-25T09:42:57;94727.00;;;9.16;49.00
86322;BME280;76978;42.798;23.336;2024-03-25T09:45:28;94731.50;;;9.14;49.07
86322;BME280;76978;42.798;23.336;2024-03-25T09:47:55;94725.59;;;9.21;50.29
86322;BME280;76978;42.798;23.336;2024-03-25T09:50:21;94722.06;;;9.22;49.08
86322;BME280;76978;42.798;23.336;2024-03-25T09:52:47;94717.94;;;9.29;49.66
86322;BME280;76978;42.798;23.336;2024-03-25T09:55:13;94725.00;;;9.27;49.33
86322;BME280;76978;42.798;23.336;2024-03-25T09:57:39;94728.13;;;9.13;50.71
86322;BME280;76978;42.798;23.336;2024-03-25T10:00:07;94721.84;;;9.16;50.62
86322;BME280;76978;42.798;23.336;2024-03-25T10:02:40;94716.47;;;9.09;50.76
86322;BME280;76978;42.798;23.336;2024-03-25T10:05:15;94721.56;;;9.01;50.89
86322;BME280;76978;42.798;23.336;2024-03-25T10:07:40;94717.97;;;8.94;51.30
86322;BME280;76978;42.798;23.336;2024-03-25T10:10:06;94713.84;;;9.01;51.07
86322;BME280;76978;42.798;23.336;2024-03-25T10:12:33;94708.47;;;9.12;50.77
86322;BME280;76978;42.798;23.336;2024-03-25T10:14:58;94705.63;;;9.41;49.79
86322;BME280;76978;42.798;23.336;2024-03-25T10:17:24;94711.25;;;9.97;48.45
86322;BME280;76978;42.798;23.336;2024-03-25T10:19:49;94697.50;;;10.56;46.19
86322;BME280;76978;42.798;23.336;2024-03-25T10:22:15;94694.97;;;10.81;44.54
86322;BME280;76978;42.798;23.336;2024-03-25T10:24:41;94693.34;;;10.80;46.11
86322;BME280;76978;42.798;23.336;2024-03-25T10:27:17;94692.03;;;10.84;45.24
86322;BME280;76978;42.798;23.336;2024-03-25T10:29:44;94699.28;;;10.72;43.47
86322;BME280;76978;42.798;23.336;2024-03-25T10:32:09;94696.84;;;10.54;43.33
86322;BME280;76978;42.798;23.336;2024-03-25T10:34:34;94698.78;;;10.60;44.34
86322;BME280;76978;42.798;23.336;2024-03-25T10:37:02;94699.91;;;10.58;44.36
86322;BME280;76978;42.798;23.336;2024-03-25T10:39:31;94682.16;;;10.63;43.84
86322;BME280;76978;42.798;23.336;2024-03-25T10:41:58;94691.22;;;10.67;44.71
86322;BME280;76978;42.798;23.336;2024-03-25T10:44:27;94675.75;;;10.75;43.47
86322;BME280;76978;42.798;23.336;2024-03-25T10:47:00;94688.97;;;10.64;43.03
86322;BME280;76978;42.798;23.336;2024-03-25T10:52:00;94685.63;;;11.04;44.49
86322;BME280;76978;42.798;23.336;2024-03-25T10:54:29;94683.81;;;11.45;40.67
86322;BME280;76978;42.798;23.336;2024-03-25T10:56:58;94682.97;;;11.85;41.24
86322;BME280;76978;42.798;23.336;2024-03-25T10:59:26;94682.66;;;12.28;40.59
86322;BME280;76978;42.798;23.336;2024-03-25T11:01:52;94683.50;;;12.59;39.64
86322;BME280;76978;42.798;23.336;2024-03-25T11:04:17;94682.97;;;12.87;39.82
86322;BME280;76978;42.798;23.336;2024-03-25T11:06:44;94672.22;;;12.98;37.52
86322;BME280;76978;42.798;23.336;2024-03-25T11:09:09;94677.34;;;12.83;37.95
86322;BME280;76978;42.798;23.336;2024-03-25T11:11:34;94696.72;;;12.64;38.03
86322;BME280;76978;42.798;23.336;2024-03-25T11:14:03;94695.53;;;12.44;40.89
86322;BME280;76978;42.798;23.336;2024-03-25T11:16:32;94695.97;;;12.47;42.38
86322;BME280;76978;42.798;23.336;2024-03-25T11:19:02;94687.03;;;12.27;43.52
86322;BME280;76978;42.798;23.336;2024-03-25T11:21:28;94711.97;;;12.12;42.08
86322;BME280;76978;42.798;23.336;2024-03-25T11:23:53;94714.22;;;12.15;43.30
86322;BME280;76978;42.798;23.336;2024-03-25T11:26:24;94720.09;;;12.09;43.50
86322;BME280;76978;42.798;23.336;2024-03-25T11:28:50;94716.44;;;12.26;44.33
86322;BME280;76978;42.798;23.336;2024-03-25T11:31:20;94706.72;;;12.36;42.11
86322;BME280;76978;42.798;23.336;2024-03-25T11:33:47;94712.19;;;12.41;41.95
86322;BME280;76978;42.798;23.336;2024-03-25T11:36:12;94720.69;;;12.58;42.45
86322;BME280;76978;42.798;23.336;2024-03-25T11:38:38;94704.09;;;12.75;41.92
86322;BME280;76978;42.798;23.336;2024-03-25T11:41:07;94706.41;;;12.93;41.69
86322;BME280;76978;42.798;23.336;2024-03-25T11:43:32;94710.22;;;13.05;41.13
86322;BME280;76978;42.798;23.336;2024-03-25T11:45:58;94709.31;;;13.21;40.07
86322;BME280;76978;42.798;23.336;2024-03-25T11:48:23;94708.09;;;13.32;40.26
86322;BME280;76978;42.798;23.336;2024-03-25T11:50:49;94713.66;;;12.75;40.32
86322;BME280;76978;42.798;23.336;2024-03-25T11:53:14;94719.28;;;12.08;39.57
86322;BME280;76978;42.798;23.336;2024-03-25T11:55:46;94731.31;;;11.52;41.36
86322;BME280;76978;42.798;23.336;2024-03-25T11:58:12;94735.16;;;11.16;41.13
86322;BME280;76978;42.798;23.336;2024-03-25T12:00:47;94715.31;;;10.92;42.67
86322;BME280;76978;42.798;23.336;2024-03-25T12:03:17;94722.91;;;11.18;43.54
86322;BME280;76978;42.798;23.336;2024-03-25T12:05:45;94729.06;;;11.33;42.73
86322;BME280;76978;42.798;23.336;2024-03-25T12:08:10;94721.13;;;11.35;43.87
86322;BME280;76978;42.798;23.336;2024-03-25T12:10:37;94720.50;;;11.32;41.62
86322;BME280;76978;42.798;23.336;2024-03-25T12:13:23;94719.03;;;11.38;41.38
86322;BME280;76978;42.798;23.336;2024-03-25T12:15:50;94716.13;;;11.49;40.78
86322;BME280;76978;42.798;23.336;2024-03-25T12:18:16;94725.81;;;11.55;42.17
86322;BME280;76978;42.798;23.336;2024-03-25T12:20:41;94719.47;;;11.90;40.37
86322;BME280;76978;42.798;23.336;2024-03-25T12:23:07;94717.53;;;12.40;39.63
86322;BME280;76978;42.798;23.336;2024-03-25T12:25:33;94705.84;;;12.83;39.70
86322;BME280;76978;42.798;23.336;2024-03-25T12:27:58;94703.94;;;13.00;38.85
86322;BME280;76978;42.798;23.336;2024-03-25T12:30:24;94708.06;;;12.86;36.43
86322;BME280;76978;42.798;23.336;2024-03-25T12:32:50;94704.19;;;12.59;34.27
86322;BME280;76978;42.798;23.336;2024-03-25T12:35:17;94696.25;;;12.30;36.34
86322;BME280;76978;42.798;23.336;2024-03-25T12:37:43;94706.06;;;11.95;36.89
86322;BME280;76978;42.798;23.336;2024-03-25T12:40:11;94708.16;;;11.92;37.90
86322;BME280;76978;42.798;23.336;2024-03-25T12:42:37;94708.66;;;11.71;36.22
86322;BME280;76978;42.798;23.336;2024-03-25T12:45:04;94724.69;;;11.42;35.75
86322;BME280;76978;42.798;23.336;2024-03-25T12:47:30;94722.59;;;11.37;41.38
86322;BME280;76978;42.798;23.336;2024-03-25T12:50:01;94725.47;;;11.75;41.99
86322;BME280;76978;42.798;23.336;2024-03-25T12:52:26;94730.88;;;12.21;41.65
86322;BME280;76978;42.798;23.336;2024-03-25T12:54:51;94736.28;;;12.50;39.32